createdAt,value
2023-02-09T00:02:09.745Z,20.23
2023-02-09T00:05:18.235Z,14.37
2023-02-09T00:08:26.727Z,15.43
2023-02-09T00:11:52.915Z,17.10
2023-02-09T00:15:03.262Z,13.17
2023-02-09T00:18:11.640Z,16.43
2023-02-09T00:21:19.992Z,17.90
2023-02-09T00:24:28.443Z,20.23
2023-02-09T00:27:37.212Z,16.50
2023-02-09T00:30:47.867Z,17.90
2023-02-09T00:33:56.789Z,20.57
2023-02-09T00:37:05.389Z,16.87
2023-02-09T00:40:13.940Z,21.83
2023-02-09T00:43:22.309Z,14.50
2023-02-09T00:46:32.246Z,18.80
2023-02-09T00:49:41.152Z,20.83
2023-02-09T00:52:49.490Z,17.60
2023-02-09T00:55:59.949Z,19.53
2023-02-09T00:59:08.534Z,24.60
2023-02-09T01:02:18.407Z,17.27
2023-02-09T01:05:27.035Z,20.90
2023-02-09T01:08:36.324Z,14.70
2023-02-09T01:11:44.718Z,19.00
2023-02-09T01:14:53.106Z,13.50
2023-02-09T01:18:02.970Z,18.43
2023-02-09T01:21:12.278Z,17.20
2023-02-09T01:24:20.766Z,15.23
2023-02-09T01:27:29.899Z,15.63
2023-02-09T01:30:38.607Z,16.57
2023-02-09T01:33:48.529Z,22.37
2023-02-09T01:36:56.882Z,15.23
2023-02-09T01:40:06.330Z,18.93
2023-02-09T01:43:16.248Z,21.23
2023-02-09T01:46:26.952Z,18.43
2023-02-09T01:49:39.072Z,15.77
2023-02-09T01:52:49.700Z,18.27
2023-02-09T01:56:03.084Z,19.90
2023-02-09T01:59:12.116Z,19.93
2023-02-09T02:02:22.607Z,20.53
2023-02-09T02:05:34.558Z,18.63
2023-02-09T02:08:48.192Z,17.13
2023-02-09T02:11:57.341Z,19.80
2023-02-09T02:15:06.391Z,15.80
2023-02-09T02:18:30.083Z,20.43
2023-02-09T02:22:03.971Z,16.60
2023-02-09T02:25:45.289Z,17.17
2023-02-09T02:29:14.988Z,16.70
2023-02-09T02:32:47.516Z,20.80
2023-02-09T02:36:04.944Z,19.47
2023-02-09T02:39:22.224Z,21.53
2023-02-09T02:42:52.909Z,20.03
2023-02-09T02:46:05.793Z,21.27
2023-02-09T02:49:22.650Z,18.20
2023-02-09T02:52:31.292Z,15.43
2023-02-09T02:55:41.747Z,18.30
2023-02-09T02:58:53.190Z,18.03
2023-02-09T03:02:06.368Z,18.13
2023-02-09T03:05:18.124Z,17.37
2023-02-09T03:08:26.484Z,16.67
2023-02-09T03:11:38.800Z,19.23
2023-02-09T03:15:00.564Z,14.33
2023-02-09T03:18:19.186Z,20.03
2023-02-09T03:21:41.571Z,17.53
2023-02-09T03:24:55.721Z,17.67
2023-02-09T03:28:08.196Z,18.83
2023-02-09T03:31:17.683Z,23.43
2023-02-09T03:34:26.494Z,15.57
2023-02-09T03:37:37.382Z,12.33
2023-02-09T03:40:46.043Z,14.50
2023-02-09T03:44:11.932Z,14.53
2023-02-09T03:47:20.355Z,16.17
2023-02-09T03:50:29.868Z,20.73
2023-02-09T03:53:39.677Z,22.23
2023-02-09T03:56:48.018Z,23.03
2023-02-09T03:59:56.391Z,19.17
2023-02-09T04:03:04.886Z,16.47
2023-02-09T04:06:13.331Z,14.83
2023-02-09T04:09:23.627Z,17.20
2023-02-09T04:12:32.229Z,17.83
2023-02-09T04:15:40.642Z,18.80
2023-02-09T04:18:49.030Z,16.27
2023-02-09T04:21:57.331Z,19.27
2023-02-09T04:25:10.671Z,15.40
2023-02-09T04:28:19.185Z,16.73
2023-02-09T04:31:27.804Z,17.87
2023-02-09T04:34:36.283Z,18.50
2023-02-09T04:37:44.716Z,18.43
2023-02-09T04:40:55.954Z,14.37
2023-02-09T04:44:04.502Z,14.53
2023-02-09T04:47:12.835Z,14.13
2023-02-09T04:50:21.331Z,14.87
2023-02-09T04:53:29.959Z,11.23
2023-02-09T04:56:39.727Z,16.80
2023-02-09T04:59:47.096Z,19.53
2023-02-09T05:02:55.979Z,14.80
2023-02-09T05:06:06.258Z,14.93
2023-02-09T05:09:14.670Z,13.77
2023-02-09T05:12:24.510Z,15.50
2023-02-09T05:15:33.885Z,11.33
2023-02-09T05:18:42.275Z,11.83
2023-02-09T05:21:50.620Z,16.40
2023-02-09T05:24:59.005Z,14.10
2023-02-09T05:28:08.798Z,12.87
2023-02-09T05:31:18.073Z,10.43
2023-02-09T05:34:26.565Z,10.90
2023-02-09T05:37:35.331Z,15.20
2023-02-09T05:40:45.279Z,15.40
2023-02-09T05:43:56.538Z,13.87
2023-02-09T05:47:04.944Z,8.90
2023-02-09T05:50:13.595Z,13.57
2023-02-09T05:53:22.079Z,15.53
2023-02-09T05:56:30.463Z,16.97
2023-02-09T05:59:40.302Z,16.47
2023-02-09T06:02:48.676Z,14.03
2023-02-09T06:05:57.033Z,15.43
2023-02-09T06:09:06.009Z,13.83
2023-02-09T06:12:14.474Z,14.87
2023-02-09T06:15:24.501Z,12.77
2023-02-09T06:18:32.902Z,12.60
2023-02-09T06:21:41.372Z,11.27
2023-02-09T06:24:49.737Z,11.20
2023-02-09T06:27:58.152Z,13.63
2023-02-09T06:31:08.941Z,11.90
2023-02-09T06:34:17.394Z,14.53
2023-02-09T06:37:25.993Z,13.53
2023-02-09T06:40:34.465Z,13.03
2023-02-09T06:43:42.849Z,12.43
2023-02-09T06:46:52.645Z,10.10
2023-02-09T06:50:01.155Z,13.23
2023-02-09T06:53:09.740Z,12.40
2023-02-09T06:56:18.253Z,11.63
2023-02-09T06:59:26.748Z,10.37
2023-02-09T07:02:36.920Z,12.37
2023-02-09T07:05:45.362Z,11.73
2023-02-09T07:08:53.814Z,12.10
2023-02-09T07:12:02.268Z,10.10
2023-02-09T07:15:11.791Z,10.50
2023-02-09T07:18:21.548Z,11.60
2023-02-09T07:21:30.033Z,9.07
2023-02-09T07:24:38.695Z,10.80
2023-02-09T07:27:47.225Z,9.60
2023-02-09T07:30:55.739Z,11.23
2023-02-09T07:34:05.647Z,11.10
2023-02-09T07:37:13.993Z,11.73
2023-02-09T07:40:22.480Z,10.83
2023-02-09T07:43:31.162Z,9.27
2023-02-09T07:46:39.670Z,13.90
2023-02-09T07:49:49.402Z,10.37
2023-02-09T07:52:57.777Z,13.40
2023-02-09T07:56:07.257Z,11.97
2023-02-09T07:59:15.775Z,8.07
2023-02-09T08:02:29.365Z,13.73
2023-02-09T08:05:44.259Z,10.80
2023-02-09T08:08:53.706Z,10.77
2023-02-09T08:12:06.321Z,15.17
2023-02-09T08:15:16.758Z,15.57
2023-02-09T08:18:30.381Z,15.80
2023-02-09T08:21:43.371Z,8.87
2023-02-09T08:24:52.097Z,12.63
2023-02-09T08:28:00.704Z,15.73
2023-02-09T08:31:09.177Z,14.37
2023-02-09T08:34:17.596Z,13.77
2023-02-09T08:37:27.449Z,11.07
2023-02-09T08:40:41.242Z,12.57
2023-02-09T08:43:50.312Z,13.70
2023-02-09T08:46:58.806Z,14.90
2023-02-09T08:50:07.759Z,17.63
2023-02-09T08:53:17.476Z,15.03
2023-02-09T08:56:25.887Z,12.83
2023-02-09T08:59:34.326Z,13.20
2023-02-09T09:02:42.725Z,13.63
2023-02-09T09:05:51.135Z,14.83
2023-02-09T09:09:00.915Z,15.27
2023-02-09T09:12:09.447Z,15.93
2023-02-09T09:15:17.888Z,11.23
2023-02-09T09:18:27.255Z,14.23
2023-02-09T09:21:35.646Z,15.10
2023-02-09T09:24:45.368Z,17.17
2023-02-09T09:27:53.781Z,15.87
2023-02-09T09:31:07.700Z,15.60
2023-02-09T09:34:16.325Z,13.00
2023-02-09T09:37:25.284Z,14.67
2023-02-09T09:40:38.247Z,14.07
2023-02-09T09:43:46.664Z,12.80
2023-02-09T09:47:01.251Z,13.47
2023-02-09T09:50:18.487Z,15.90
2023-02-09T09:53:33.170Z,14.17
2023-02-09T09:56:43.321Z,16.53
2023-02-09T09:59:52.578Z,12.93
2023-02-09T10:03:00.985Z,13.43
2023-02-09T10:06:16.363Z,18.83
2023-02-09T10:09:33.392Z,17.27
2023-02-09T10:12:48.995Z,16.27
2023-02-09T10:15:58.760Z,16.47
2023-02-09T10:19:18.589Z,10.90
2023-02-09T10:22:27.024Z,11.73
2023-02-09T10:25:49.335Z,14.20
2023-02-09T10:29:00.926Z,15.43
2023-02-09T10:32:16.724Z,11.27
2023-02-09T10:35:28.282Z,12.77
2023-02-09T10:38:42.107Z,14.50
2023-02-09T10:41:53.052Z,14.07
2023-02-09T10:45:14.692Z,12.23
2023-02-09T10:48:24.411Z,17.00
2023-02-09T10:51:35.119Z,15.60
2023-02-09T10:54:44.330Z,13.57
2023-02-09T10:57:52.757Z,13.97
2023-02-09T11:01:18.036Z,14.37
2023-02-09T11:04:28.490Z,18.20
2023-02-09T11:07:42.941Z,17.97
2023-02-09T11:11:05.710Z,12.57
2023-02-09T11:14:17.022Z,18.00
2023-02-09T11:17:28.228Z,13.50
2023-02-09T11:20:41.525Z,15.20
2023-02-09T11:23:57.054Z,18.77
2023-02-09T11:27:11.267Z,13.90
2023-02-09T11:30:37.378Z,14.33
2023-02-09T11:33:54.352Z,16.40
2023-02-09T11:37:11.616Z,14.93
2023-02-09T11:40:35.078Z,11.60
2023-02-09T11:43:46.726Z,14.33
2023-02-09T11:47:04.175Z,14.97
2023-02-09T11:50:23.029Z,13.33
2023-02-09T11:53:40.133Z,12.93
2023-02-09T11:56:50.938Z,17.97
2023-02-09T12:00:02.157Z,14.07
2023-02-09T12:03:14.358Z,15.23
2023-02-09T12:06:25.221Z,16.17
2023-02-09T12:09:44.760Z,13.17
2023-02-09T12:12:59.095Z,13.83
2023-02-09T12:16:14.450Z,14.20
2023-02-09T12:19:30.991Z,14.37
2023-02-09T12:22:53.228Z,10.43
2023-02-09T12:26:03.444Z,17.20
2023-02-09T12:29:34.118Z,15.27
2023-02-09T12:32:45.044Z,12.87
2023-02-09T12:36:01.840Z,10.70
2023-02-09T12:39:25.620Z,13.70
2023-02-09T12:42:41.756Z,13.67
2023-02-09T12:46:21.626Z,14.90
2023-02-09T12:49:34.928Z,12.43
2023-02-09T12:53:32.378Z,14.10
2023-02-09T12:56:42.148Z,11.53
2023-02-09T13:00:23.757Z,16.27
2023-02-09T13:03:41.853Z,14.13
2023-02-09T13:06:55.894Z,10.20
2023-02-09T13:10:20.052Z,12.30
2023-02-09T13:13:39.851Z,14.80
2023-02-09T13:17:24.830Z,14.33
2023-02-09T13:20:54.545Z,11.27
2023-02-09T13:24:09.194Z,11.20
2023-02-09T13:27:20.725Z,10.07
2023-02-09T13:30:33.134Z,13.00
2023-02-09T13:33:49.476Z,13.17
2023-02-09T13:37:08.601Z,16.77
2023-02-09T13:40:20.724Z,15.03
2023-02-09T13:43:32.122Z,11.30
2023-02-09T13:46:41.941Z,10.57
2023-02-09T13:50:01.183Z,13.43
2023-02-09T13:53:10.539Z,14.93
2023-02-09T13:56:18.984Z,12.00
2023-02-09T13:59:27.502Z,18.23
2023-02-09T14:02:38.837Z,15.07
2023-02-09T14:05:52.633Z,14.13
2023-02-09T14:09:02.465Z,18.00
2023-02-09T14:12:16.513Z,17.83
2023-02-09T14:15:49.494Z,11.60
2023-02-09T14:18:59.773Z,16.33
2023-02-09T14:22:27.561Z,13.17
2023-02-09T14:25:35.916Z,8.63
2023-02-09T14:28:46.850Z,9.67
2023-02-09T14:31:57.098Z,15.67
2023-02-09T14:35:19.622Z,13.27
2023-02-09T14:38:38.035Z,9.20
2023-02-09T14:41:58.443Z,9.37
2023-02-09T14:45:29.071Z,14.80
2023-02-09T14:48:37.447Z,11.03
2023-02-09T14:51:48.513Z,13.67
2023-02-09T14:55:00.034Z,13.10
2023-02-09T14:58:22.187Z,11.40
2023-02-09T15:01:30.712Z,15.60
2023-02-09T15:04:39.172Z,8.80
2023-02-09T15:07:52.896Z,12.23
2023-02-09T15:11:23.822Z,11.77
2023-02-09T15:14:34.132Z,9.37
2023-02-09T15:17:42.591Z,9.87
2023-02-09T15:20:51.509Z,8.43
2023-02-09T15:24:01.317Z,12.00
2023-02-09T15:27:29.927Z,7.37
2023-02-09T15:30:38.416Z,10.37
2023-02-09T15:33:46.947Z,16.47
2023-02-09T15:36:57.044Z,10.90
2023-02-09T15:40:38.823Z,9.03
2023-02-09T15:44:04.500Z,7.07
2023-02-09T15:47:30.536Z,7.47
2023-02-09T15:50:42.314Z,3.60
2023-02-09T15:53:50.778Z,6.80
2023-02-09T15:57:02.246Z,10.93
2023-02-09T16:00:17.611Z,9.70
2023-02-09T16:03:26.385Z,4.33
2023-02-09T16:06:35.755Z,9.17
2023-02-09T16:09:44.486Z,7.03
2023-02-09T16:12:54.867Z,6.80
2023-02-09T16:16:16.366Z,6.87
2023-02-09T16:19:25.548Z,8.23
2023-02-09T16:22:34.161Z,8.70
2023-02-09T16:25:43.219Z,7.57
2023-02-09T16:28:54.028Z,9.70
2023-02-09T16:32:02.408Z,6.90
2023-02-09T16:35:17.635Z,5.17
2023-02-09T16:38:27.593Z,5.60
2023-02-09T16:41:53.887Z,5.80
2023-02-09T16:45:03.902Z,6.30
2023-02-09T16:48:20.101Z,7.47
2023-02-09T16:51:28.512Z,8.53
2023-02-09T16:54:42.581Z,13.07
2023-02-09T16:57:54.709Z,6.60
2023-02-09T17:01:04.941Z,8.10
2023-02-09T17:04:14.896Z,5.53
2023-02-09T17:07:25.682Z,5.83
2023-02-09T17:10:35.939Z,10.00
2023-02-09T17:13:44.775Z,13.73
2023-02-09T17:16:54.685Z,10.97
2023-02-09T17:20:05.967Z,7.67
2023-02-09T17:23:17.272Z,10.53
2023-02-09T17:26:25.939Z,5.97
2023-02-09T17:29:34.880Z,9.23
2023-02-09T17:32:47.000Z,8.67
2023-02-09T17:39:25.428Z,9.13
2023-02-09T17:42:34.838Z,8.03
2023-02-09T17:45:47.862Z,8.53
2023-02-09T17:48:57.768Z,9.80
2023-02-09T17:52:06.538Z,6.90
2023-02-09T17:55:26.078Z,8.17
2023-02-09T17:58:34.432Z,14.43
2023-02-09T18:01:45.233Z,4.53
2023-02-09T18:04:55.115Z,8.87
2023-02-09T18:08:03.614Z,9.00
2023-02-09T18:11:13.696Z,7.63
2023-02-09T18:14:23.278Z,7.93
2023-02-09T18:17:31.850Z,13.10
2023-02-09T18:20:42.533Z,7.73
2023-02-09T18:23:51.118Z,7.50
2023-02-09T18:27:00.268Z,10.13
2023-02-09T18:30:09.382Z,6.87
2023-02-09T18:33:17.918Z,10.13
2023-02-09T18:36:27.865Z,10.17
2023-02-09T18:39:38.762Z,6.50
2023-02-09T18:42:49.014Z,11.17
2023-02-09T18:49:22.290Z,12.30
2023-02-09T18:59:47.890Z,9.73
2023-02-09T19:02:58.429Z,11.90
2023-02-09T19:06:10.288Z,7.57
2023-02-09T19:09:20.291Z,11.73
2023-02-09T19:12:28.915Z,11.40
2023-02-09T19:15:39.795Z,7.27
2023-02-09T19:18:48.279Z,8.40
2023-02-09T19:21:57.826Z,7.00
2023-02-09T19:25:08.652Z,9.23
2023-02-09T19:28:17.142Z,7.20
2023-02-09T19:31:25.863Z,11.10
2023-02-09T19:34:37.100Z,8.37
2023-02-09T19:37:45.681Z,9.13
2023-02-09T19:41:09.771Z,9.67
2023-02-09T19:44:19.115Z,9.43
2023-02-09T19:47:27.577Z,6.13
2023-02-09T19:50:37.779Z,11.50
2023-02-09T19:53:46.370Z,9.57
2023-02-09T19:56:56.177Z,8.47
2023-02-09T20:00:06.128Z,10.87
2023-02-09T20:03:17.370Z,13.53
2023-02-09T20:06:25.972Z,13.43
2023-02-09T20:09:34.383Z,7.77
2023-02-09T20:15:53.469Z,13.77
2023-02-09T20:19:01.829Z,6.40
2023-02-09T20:22:10.209Z,15.07
2023-02-09T20:25:19.136Z,17.07
2023-02-09T20:28:29.027Z,12.37
2023-02-09T20:31:39.663Z,8.93
2023-02-09T20:34:48.003Z,10.43
2023-02-09T20:37:56.410Z,14.47
2023-02-09T20:41:09.144Z,10.20
2023-02-09T20:44:44.667Z,4.83
2023-02-09T20:47:53.154Z,8.27
2023-02-09T20:51:03.934Z,6.07
2023-02-09T20:54:12.887Z,6.63
2023-02-09T20:57:21.295Z,6.80
2023-02-09T21:00:31.276Z,10.53
2023-02-09T21:03:39.731Z,5.70
2023-02-09T21:06:48.189Z,9.63
2023-02-09T21:09:56.591Z,5.03
2023-02-09T21:13:06.011Z,7.30
2023-02-09T21:16:20.181Z,3.33
2023-02-09T21:19:28.653Z,4.00
2023-02-09T21:22:36.990Z,5.13
2023-02-09T21:25:45.499Z,5.13
2023-02-09T21:28:56.650Z,4.33
2023-02-09T21:32:08.646Z,5.13
2023-02-09T21:35:17.317Z,7.30
2023-02-09T21:38:25.697Z,13.40
2023-02-09T21:41:51.563Z,9.40
2023-02-09T21:45:00.742Z,6.57
2023-02-09T21:48:10.548Z,8.40
2023-02-09T21:51:19.044Z,8.63
2023-02-09T21:54:33.081Z,11.73
2023-02-09T21:57:41.470Z,7.43
2023-02-09T22:00:57.982Z,11.43
2023-02-09T22:04:07.912Z,7.97
2023-02-09T22:07:16.494Z,5.93
2023-02-09T22:10:24.867Z,7.60
2023-02-09T22:13:33.342Z,6.60
2023-02-09T22:16:42.573Z,8.47
2023-02-09T22:19:52.424Z,7.03
2023-02-09T22:23:00.799Z,12.87
2023-02-09T22:26:09.486Z,7.97
2023-02-09T22:29:18.440Z,8.77
2023-02-09T22:32:26.985Z,11.67
2023-02-09T22:35:41.658Z,8.90
2023-02-09T22:38:50.063Z,8.23
2023-02-09T22:41:59.600Z,9.33
2023-02-09T22:45:08.682Z,9.20
2023-02-09T22:48:17.028Z,9.00
2023-02-09T22:51:29.443Z,11.03
2023-02-09T22:54:38.123Z,11.77
2023-02-09T22:57:46.509Z,9.83
2023-02-09T23:00:54.920Z,7.70
2023-02-09T23:04:03.392Z,5.47
2023-02-09T23:07:13.213Z,12.27
2023-02-09T23:10:22.551Z,7.60
2023-02-09T23:13:32.834Z,3.63
2023-02-09T23:16:42.045Z,6.47
2023-02-09T23:19:50.494Z,4.93
2023-02-09T23:23:05.481Z,7.90
2023-02-09T23:26:14.741Z,1.53
2023-02-09T23:29:23.532Z,3.87
2023-02-09T23:32:32.009Z,4.00
2023-02-09T23:35:41.137Z,3.93
2023-02-09T23:38:54.253Z,2.37
2023-02-09T23:42:02.647Z,5.00
2023-02-09T23:45:11.266Z,1.83
2023-02-09T23:48:19.815Z,4.77
2023-02-09T23:51:30.227Z,8.87
2023-02-09T23:54:39.963Z,5.47
2023-02-09T23:57:48.360Z,8.93
